Observation data for Clarendon on 07/03/2020      Previous  Date       Current Mesonet Observations  Soil Data  Daily Summary Page  Observations in Plain Language
KCES 030500Z 16009G14KT 26/18 A3003 RMK A01 T02560179  RH  066%=      5-min Rain = 0
KCES 030505Z 15006KT 26/18 A3003 RMK A01 T02590180  RH  065%=      5-min Rain = 0
KCES 030510Z 15012KT 26/18 A3003 RMK A01 T02560182  RH  067%=      5-min Rain = 0
KCES 030515Z 16013KT 26/18 A3003 RMK A01 T02590181  RH  066%=      5-min Rain = 0
KCES 030520Z 16012KT 26/18 A3003 RMK A01 T02580182  RH  066%=      5-min Rain = 0
KCES 030525Z 16012KT 26/18 A3003 RMK A01 T02610181  RH  065%=      5-min Rain = 0
KCES 030530Z 16010KT 26/18 A3004 RMK A01 T02590183  RH  066%=      5-min Rain = 0
KCES 030535Z 16010KT 26/18 A3004 RMK A01 T02570183  RH  067%=      5-min Rain = 0
KCES 030540Z 16010KT 26/18 A3004 RMK A01 T02560184  RH  068%=      5-min Rain = 0
KCES 030545Z 17009KT 26/19 A3004 RMK A01 T02550185  RH  069%=      5-min Rain = 0
KCES 030550Z 17009KT 25/18 A3004 RMK A01 T02540183  RH  069%=      5-min Rain = 0
KCES 030555Z 17009KT 25/18 A3004 RMK A01 T02540183  RH  068%=      5-min Rain = 0
KCES 030600Z 17010KT 25/18 A3003 RMK A01 T02540182  RH  068%=      5-min Rain = 0
KCES 030605Z 18009KT 25/18 A3003 RMK A01 T02540182  RH  068%=      5-min Rain = 0
KCES 030610Z 19007KT 25/18 A3004 RMK A01 T02530183  RH  069%=      5-min Rain = 0
KCES 030615Z 20007KT 25/18 A3004 RMK A01 T02510182  RH  069%=      5-min Rain = 0
KCES 030620Z 21007KT 25/18 A3004 RMK A01 T02490183  RH  070%=      5-min Rain = 0
KCES 030625Z 22006KT 25/19 A3004 RMK A01 T02480185  RH  072%=      5-min Rain = 0
KCES 030630Z 24006KT 24/19 A3004 RMK A01 T02410188  RH  076%=      5-min Rain = 0
KCES 030635Z 25004KT 24/19 A3004 RMK A01 T02370187  RH  078%=      5-min Rain = 0
KCES 030640Z 26004KT 24/19 A3004 RMK A01 T02350186  RH  078%=      5-min Rain = 0
KCES 030645Z 24002G7KT 23/19 A3004 RMK A01 T02330185  RH  078%=      5-min Rain = 0
KCES 030650Z 20001KT 23/18 A3003 RMK A01 T02320184  RH  079%=      5-min Rain = 0
KCES 030655Z 23002KT 23/18 A3003 RMK A01 T02310184  RH  079%=      5-min Rain = 0
KCES 030700Z 27004KT 23/19 A3003 RMK A01 T02300186  RH  081%=      5-min Rain = 0
KCES 030705Z 30002KT 23/19 A3003 RMK A01 T02270186  RH  082%=      5-min Rain = 0
KCES 030710Z 02003KT 23/19 A3003 RMK A01 T02250186  RH  083%=      5-min Rain = 0
KCES 030715Z 01003KT 23/19 A3003 RMK A01 T02250188  RH  084%=      5-min Rain = 0
KCES 030720Z 33003KT 23/19 A3002 RMK A01 T02250188  RH  084%=      5-min Rain = 0
KCES 030725Z 30003KT 22/19 A3002 RMK A01 T02230186  RH  084%=      5-min Rain = 0
KCES 030730Z 28002KT 22/19 A3002 RMK A01 T02220186  RH  085%=      5-min Rain = 0
KCES 030735Z 21001KT 22/19 A3002 RMK A01 T02220187  RH  085%=      5-min Rain = 0
KCES 030740Z 19001KT 22/19 A3002 RMK A01 T02220188  RH  086%=      5-min Rain = 0
KCES 030745Z 18002KT 22/19 A3002 RMK A01 T02210188  RH  086%=      5-min Rain = 0
KCES 030750Z 18002KT 22/19 A3001 RMK A01 T02200189  RH  087%=      5-min Rain = 0
KCES 030755Z 21003KT 22/19 A3001 RMK A01 T02200189  RH  087%=      5-min Rain = 0
KCES 030800Z 23004KT 22/19 A3001 RMK A01 T02190190  RH  088%=      5-min Rain = 0
KCES 030805Z 22005KT 22/19 A3001 RMK A01 T02190191  RH  089%=      5-min Rain = 0
KCES 030810Z 21007KT 22/19 A3001 RMK A01 T02190190  RH  088%=      5-min Rain = 0
KCES 030815Z 21008KT 23/19 A30 RMK A01 T02250188  RH  084%=      5-min Rain = 0
KCES 030820Z 21008KT 23/19 A3001 RMK A01 T02300186  RH  081%=      5-min Rain = 0
KCES 030825Z 20008KT 23/19 A30 RMK A01 T02300186  RH  081%=      5-min Rain = 0
KCES 030830Z 20008KT 23/19 A30 RMK A01 T02310185  RH  079%=      5-min Rain = 0
KCES 030835Z 20006KT 23/19 A30 RMK A01 T02310185  RH  079%=      5-min Rain = 0
KCES 030840Z 18005KT 23/19 A3001 RMK A01 T02290186  RH  081%=      5-min Rain = 0
KCES 030845Z 16005KT 23/19 A3001 RMK A01 T02300185  RH  080%=      5-min Rain = 0
KCES 030850Z 14004KT 23/19 A3002 RMK A01 T02310186  RH  080%=      5-min Rain = 0
KCES 030855Z 11004KT 23/19 A3002 RMK A01 T02300186  RH  081%=      5-min Rain = 0
KCES 030900Z 08006KT 23/19 A3002 RMK A01 T02310189  RH  082%=      5-min Rain = 0
KCES 030905Z 07007KT 23/19 A3003 RMK A01 T02310189  RH  082%=      5-min Rain = 0
KCES 030910Z 06006KT 23/19 A3003 RMK A01 T02310191  RH  083%=      5-min Rain = 0
KCES 030915Z 05006KT 23/19 A3004 RMK A01 T02300192  RH  084%=      5-min Rain = 0
KCES 030920Z 04005KT 23/19 A3004 RMK A01 T02300192  RH  084%=      5-min Rain = 0
KCES 030925Z 04003KT 23/19 A3004 RMK A01 T02300192  RH  084%=      5-min Rain = 0
KCES 030930Z 04002KT 23/19 A3004 RMK A01 T02290193  RH  084%=      5-min Rain = 0
KCES 030935Z 05000KT 23/19 A3004 RMK A01 T02290193  RH  085%=      5-min Rain = 0
KCES 030940Z 10000KT 23/19 A3004 RMK A01 T02280194  RH  086%=      5-min Rain = 0
KCES 030945Z 08000KT 23/19 A3004 RMK A01 T02270194  RH  086%=      5-min Rain = 0
KCES 030950Z 03002KT 23/20 A3004 RMK A01 T02270195  RH  087%=      5-min Rain = 0
KCES 030955Z 04004KT 23/20 A3004 RMK A01 T02270196  RH  087%=      5-min Rain = 0
KCES 031000Z 06004KT 23/20 A3004 RMK A01 T02260196  RH  088%=      5-min Rain = 0
KCES 031005Z 08004KT 23/20 A3004 RMK A01 T02250195  RH  088%=      5-min Rain = 0
KCES 031010Z 10004KT 23/19 A3004 RMK A01 T02250194  RH  087%=      5-min Rain = 0
KCES 031015Z 10004KT 23/19 A3004 RMK A01 T02250193  RH  087%=      5-min Rain = 0
KCES 031020Z 09004KT 23/19 A3004 RMK A01 T02250192  RH  087%=      5-min Rain = 0
KCES 031025Z 10002KT 22/19 A3004 RMK A01 T02240192  RH  087%=      5-min Rain = 0
KCES 031030Z 09002KT 22/19 A3004 RMK A01 T02230192  RH  087%=      5-min Rain = 0
KCES 031035Z 09003KT 22/19 A3004 RMK A01 T02220191  RH  087%=      5-min Rain = 0
KCES 031040Z 09003KT 22/19 A3005 RMK A01 T02210191  RH  088%=      5-min Rain = 0
KCES 031045Z 08002KT 22/19 A3005 RMK A01 T02210191  RH  088%=      5-min Rain = 0
KCES 031050Z 08003KT 22/19 A3005 RMK A01 T02200191  RH  088%=      5-min Rain = 0
KCES 031055Z 08003KT 22/19 A3005 RMK A01 T02200191  RH  088%=      5-min Rain = 0
KCES 031100Z 08003KT 22/19 A3005 RMK A01 T02200191  RH  088%=      5-min Rain = 0
KCES 031105Z 09003KT 22/19 A3005 RMK A01 T02200190  RH  088%=      5-min Rain = 0
KCES 031110Z 10004KT 22/19 A3005 RMK A01 T02190190  RH  088%=      5-min Rain = 0
KCES 031115Z 11006KT 22/19 A3005 RMK A01 T02200189  RH  087%=      5-min Rain = 0
KCES 031120Z 11006KT 22/19 A3005 RMK A01 T02220189  RH  086%=      5-min Rain = 0
KCES 031125Z 11006KT 22/19 A3005 RMK A01 T02220189  RH  086%=      5-min Rain = 0
KCES 031130Z 11006KT 22/19 A3006 RMK A01 T02210189  RH  086%=      5-min Rain = 0
KCES 031135Z 11006KT 22/19 A3006 RMK A01 T02220189  RH  086%=      5-min Rain = 0
KCES 031140Z 12006KT 22/19 A3006 RMK A01 T02220189  RH  086%=      5-min Rain = 0
KCES 031145Z 12006KT 22/19 A3006 RMK A01 T02210189  RH  087%=      5-min Rain = 0
KCES 031150Z 11005KT 22/19 A3006 RMK A01 T02200190  RH  087%=      5-min Rain = 0
KCES 031155Z 09005KT 22/19 A3006 RMK A01 T02210190  RH  087%=      5-min Rain = 0
KCES 031200Z 03004KT 22/19 A3006 RMK A01 T02210190  RH  087%=      5-min Rain = 0
KCES 031205Z 02003KT 22/19 A3007 RMK A01 T02190189  RH  088%=      5-min Rain = 0
KCES 031210Z 07001KT 22/19 A3007 RMK A01 T02180190  RH  089%=      5-min Rain = 0
KCES 031215Z 14003KT 22/19 A3006 RMK A01 T02180191  RH  089%=      5-min Rain = 0
KCES 031220Z 15004KT 22/19 A3006 RMK A01 T02190192  RH  089%=      5-min Rain = 0
KCES 031225Z 15003KT 22/19 A3006 RMK A01 T02210194  RH  089%=      5-min Rain = 0
KCES 031230Z 16002KT 22/20 A3006 RMK A01 T02230195  RH  089%=      5-min Rain = 0
KCES 031235Z 17002KT 23/20 A3007 RMK A01 T02260196  RH  088%=      5-min Rain = 0
KCES 031240Z 11001KT 23/20 A3007 RMK A01 T02290197  RH  087%=      5-min Rain = 0
KCES 031245Z 07002KT 23/20 A3007 RMK A01 T02320197  RH  085%=      5-min Rain = 0
KCES 031250Z 06002KT 24/20 A3007 RMK A01 T02350196  RH  084%=      5-min Rain = 0
KCES 031255Z 03003KT 24/20 A3007 RMK A01 T02360197  RH  083%=      5-min Rain = 0
KCES 031300Z 07002KT 24/20 A3007 RMK A01 T02370198  RH  083%=      5-min Rain = 0
KCES 031305Z 11005KT 24/20 A3008 RMK A01 T02370196  RH  082%=      5-min Rain = 0
KCES 031310Z 12005KT 24/20 A3008 RMK A01 T02380196  RH  082%=      5-min Rain = 0
KCES 031315Z 12006KT 24/20 A3008 RMK A01 T02400197  RH  081%=      5-min Rain = 0
KCES 031320Z 11005KT 24/20 A3008 RMK A01 T02430198  RH  081%=      5-min Rain = 0
KCES 031325Z 10004KT 25/20 A3009 RMK A01 T02450198  RH  079%=      5-min Rain = 0
KCES 031330Z 11005KT 25/20 A3009 RMK A01 T02460196  RH  078%=      5-min Rain = 0
KCES 031335Z 12004KT 25/20 A3009 RMK A01 T02470197  RH  078%=      5-min Rain = 0
KCES 031340Z 14004KT 25/20 A3009 RMK A01 T02490198  RH  078%=      5-min Rain = 0
KCES 031345Z 14005KT 25/20 A3009 RMK A01 T02510197  RH  076%=      5-min Rain = 0
KCES 031350Z 13003KT 25/20 A3009 RMK A01 T02530199  RH  076%=      5-min Rain = 0
KCES 031355Z 12002KT 26/20 A3009 RMK A01 T02570198  RH  074%=      5-min Rain = 0
KCES 031400Z 13003KT 26/20 A3009 RMK A01 T02580197  RH  073%=      5-min Rain = 0
KCES 031405Z 09003KT 26/20 A3009 RMK A01 T02610200  RH  074%=      5-min Rain = 0
KCES 031410Z 12003KT 26/20 A3009 RMK A01 T02600198  RH  073%=      5-min Rain = 0
KCES 031415Z 14003KT 26/20 A3009 RMK A01 T02610198  RH  072%=      5-min Rain = 0
KCES 031420Z 13003KT 26/20 A301 RMK A01 T02630199  RH  072%=      5-min Rain = 0
KCES 031425Z 10004KT 27/20 A301 RMK A01 T02650201  RH  072%=      5-min Rain = 0
KCES 031430Z 11005KT 27/20 A301 RMK A01 T02650200  RH  072%=      5-min Rain = 0
KCES 031435Z 12006KT 27/20 A301 RMK A01 T02650200  RH  071%=      5-min Rain = 0
KCES 031440Z 13007KT 27/20 A301 RMK A01 T02660199  RH  070%=      5-min Rain = 0
KCES 031445Z 14006KT 27/20 A301 RMK A01 T02690199  RH  069%=      5-min Rain = 0
KCES 031450Z 12005KT 27/20 A301 RMK A01 T02700199  RH  069%=      5-min Rain = 0
KCES 031455Z 13006KT 27/20 A301 RMK A01 T02710197  RH  068%=      5-min Rain = 0
KCES 031500Z 11006KT 27/20 A301 RMK A01 T02730199  RH  068%=      5-min Rain = 0
KCES 031505Z 10005KT 28/20 A301 RMK A01 T02750200  RH  067%=      5-min Rain = 0
KCES 031510Z 12005KT 28/20 A3011 RMK A01 T02760200  RH  067%=      5-min Rain = 0
KCES 031515Z 11005KT 28/20 A301 RMK A01 T02780202  RH  067%=      5-min Rain = 0
KCES 031520Z 12005KT 28/20 A301 RMK A01 T02790199  RH  066%=      5-min Rain = 0.01
KCES 031525Z 12004KT 28/20 A301 RMK A01 T02800199  RH  065%=      5-min Rain = 0
KCES 031530Z 12006KT 28/20 A301 RMK A01 T02820198  RH  064%=      5-min Rain = 0
KCES 031535Z 12005KT 28/20 A301 RMK A01 T02840196  RH  062%=      5-min Rain = 0
KCES 031540Z 11005KT 29/19 A301 RMK A01 T02860194  RH  061%=      5-min Rain = 0
KCES 031545Z 11005KT 29/19 A301 RMK A01 T02880193  RH  060%=      5-min Rain = 0
KCES 031550Z 10005KT 29/19 A301 RMK A01 T02890190  RH  058%=      5-min Rain = 0
KCES 031555Z 10005KT 29/19 A301 RMK A01 T02920190  RH  057%=      5-min Rain = 0
KCES 031600Z 11005KT 29/19 A301 RMK A01 T02930189  RH  056%=      5-min Rain = 0
KCES 031605Z 11004KT 30/18 A301 RMK A01 T02950184  RH  054%=      5-min Rain = 0
KCES 031610Z 09004KT 30/19 A301 RMK A01 T02960185  RH  054%=      5-min Rain = 0
KCES 031615Z 10006KT 30/19 A301 RMK A01 T02970189  RH  055%=      5-min Rain = 0
KCES 031620Z 14004KT 30/19 A301 RMK A01 T02980188  RH  055%=      5-min Rain = 0
KCES 031625Z 09003KT 30/19 A301 RMK A01 T03010187  RH  053%=      5-min Rain = 0
KCES 031630Z 12005KT 30/19 A301 RMK A01 T03030188  RH  053%=      5-min Rain = 0
KCES 031635Z 13002G7KT 30/18 A301 RMK A01 T03020182  RH  051%=      5-min Rain = 0
KCES 031640Z 17004KT 31/18 A301 RMK A01 T03060178  RH  049%=      5-min Rain = 0
KCES 031645Z 17003KT 31/17 A301 RMK A01 T03080170  RH  046%=      5-min Rain = 0
KCES 031650Z 17004KT 31/18 A301 RMK A01 T03110175  RH  046%=      5-min Rain = 0
KCES 031655Z 07001KT 31/17 A301 RMK A01 T03140172  RH  045%=      5-min Rain = 0
KCES 031700Z 12001KT 32/18 A301 RMK A01 T03180175  RH  045%=      5-min Rain = 0
KCES 031705Z 19002KT 32/17 A301 RMK A01 T03170172  RH  044%=      5-min Rain = 0
KCES 031710Z 20003KT 32/17 A301 RMK A01 T03170174  RH  045%=      5-min Rain = 0
KCES 031715Z 15002KT 32/17 A301 RMK A01 T03180174  RH  044%=      5-min Rain = 0
KCES 031720Z 31002KT 32/17 A301 RMK A01 T03180174  RH  044%=      5-min Rain = 0
KCES 031725Z 15003KT 32/17 A3009 RMK A01 T03200173  RH  044%=      5-min Rain = 0
KCES 031730Z 21004KT 32/17 A3009 RMK A01 T03190172  RH  044%=      5-min Rain = 0
KCES 031735Z 24005KT 32/16 A3009 RMK A01 T03180163  RH  041%=      5-min Rain = 0
KCES 031740Z 26003KT 32/16 A3009 RMK A01 T03170158  RH  040%=      5-min Rain = 0
KCES 031745Z 27003KT 32/16 A3009 RMK A01 T03200160  RH  040%=      5-min Rain = 0
KCES 031750Z 22002KT 32/16 A3009 RMK A01 T03200160  RH  040%=      5-min Rain = 0
KCES 031755Z 13002KT 33/17 A3009 RMK A01 T03270166  RH  040%=      5-min Rain = 0
KCES 031800Z 08003KT 33/16 A3009 RMK A01 T03260162  RH  039%=      5-min Rain = 0
KCES 031805Z 17003KT 33/16 A3009 RMK A01 T03270161  RH  039%=      5-min Rain = 0
KCES 031810Z 14003KT 33/16 A3008 RMK A01 T03290161  RH  038%=      5-min Rain = 0
KCES 031815Z 13005KT 33/16 A3008 RMK A01 T03270156  RH  038%=      5-min Rain = 0
KCES 031820Z 13003KT 33/16 A3008 RMK A01 T03270155  RH  037%=      5-min Rain = 0
KCES 031825Z 14002KT 33/16 A3008 RMK A01 T03310159  RH  037%=      5-min Rain = 0
KCES 031830Z 21003KT 33/16 A3008 RMK A01 T03330157  RH  037%=      5-min Rain = 0
KCES 031835Z 22003KT 33/15 A3008 RMK A01 T03330150  RH  035%=      5-min Rain = 0
KCES 031840Z 13003KT 33/15 A3008 RMK A01 T03310146  RH  034%=      5-min Rain = 0
KCES 031845Z 33001KT 33/15 A3008 RMK A01 T03340151  RH  035%=      5-min Rain = 0
KCES 031850Z 10004KT 34/15 A3008 RMK A01 T03360149  RH  034%=      5-min Rain = 0
KCES 031855Z 11005KT 33/15 A3007 RMK A01 T03330151  RH  035%=      5-min Rain = 0
KCES 031900Z 12005KT 33/15 A3007 RMK A01 T03310147  RH  035%=      5-min Rain = 0
KCES 031905Z 15003G9KT 33/14 A3007 RMK A01 T03280138  RH  033%=      5-min Rain = 0
KCES 031910Z 16004KT 33/14 A3007 RMK A01 T03270143  RH  034%=      5-min Rain = 0
KCES 031915Z 19002KT 33/14 A3007 RMK A01 T03320138  RH  032%=      5-min Rain = 0
KCES 031920Z 25002KT 33/14 A3007 RMK A01 T03340143  RH  033%=      5-min Rain = 0
KCES 031925Z 17004KT 34/15 A3007 RMK A01 T03400147  RH  033%=      5-min Rain = 0
KCES 031930Z 14007KT 34/15 A3007 RMK A01 T03370145  RH  033%=      5-min Rain = 0
KCES 031935Z 14005KT 34/14 A3006 RMK A01 T03390138  RH  031%=      5-min Rain = 0
KCES 031940Z 13002KT 34/14 A3006 RMK A01 T03430136  RH  030%=      5-min Rain = 0
KCES 031945Z 19003G8KT 35/14 A3006 RMK A01 T03450139  RH  030%=      5-min Rain = 0
KCES 031950Z 21003KT 35/13 A3006 RMK A01 T03460133  RH  029%=      5-min Rain = 0
KCES 031955Z 12004G10KT 35/14 A3006 RMK A01 T03470142  RH  031%=      5-min Rain = 0
KCES 032000Z 12008KT 35/14 A3006 RMK A01 T03460144  RH  031%=      5-min Rain = 0
KCES 032005Z 09004KT 34/14 A3005 RMK A01 T03430137  RH  030%=      5-min Rain = 0
KCES 032010Z 16008KT 34/14 A3005 RMK A01 T03440143  RH  031%=      5-min Rain = 0
KCES 032015Z 17006KT 35/14 A3005 RMK A01 T03490141  RH  030%=      5-min Rain = 0
KCES 032020Z 05001KT 35/14 A3005 RMK A01 T03470135  RH  029%=      5-min Rain = 0
KCES 032025Z 12002KT 35/14 A3005 RMK A01 T03500141  RH  030%=      5-min Rain = 0
KCES 032030Z 22004KT 35/14 A3005 RMK A01 T03500140  RH  029%=      5-min Rain = 0
KCES 032035Z 08005KT 34/14 A3005 RMK A01 T03440140  RH  031%=      5-min Rain = 0
KCES 032040Z 06004KT 34/14 A3005 RMK A01 T03380136  RH  031%=      5-min Rain = 0
KCES 032045Z 09005G10KT 34/14 A3004 RMK A01 T03430144  RH  032%=      5-min Rain = 0
KCES 032050Z 10006G11KT 35/14 A3004 RMK A01 T03470143  RH  031%=      5-min Rain = 0
KCES 032055Z 09008KT 35/15 A3004 RMK A01 T03500151  RH  032%=      5-min Rain = 0
KCES 032100Z 12009KT 35/15 A3004 RMK A01 T03490145  RH  031%=      5-min Rain = 0
KCES 032105Z 13009KT 35/15 A3004 RMK A01 T03510149  RH  031%=      5-min Rain = 0
KCES 032110Z 13009KT 35/14 A3004 RMK A01 T03490143  RH  030%=      5-min Rain = 0
KCES 032115Z 09006G11KT 35/14 A3004 RMK A01 T03480143  RH  031%=      5-min Rain = 0
KCES 032120Z 11009G14KT 35/15 A3003 RMK A01 T03510147  RH  031%=      5-min Rain = 0
KCES 032125Z 11011KT 35/15 A3003 RMK A01 T03500149  RH  032%=      5-min Rain = 0
KCES 032130Z 11010G15KT 35/15 A3003 RMK A01 T03470148  RH  032%=      5-min Rain = 0
KCES 032135Z 12012KT 35/15 A3003 RMK A01 T03490147  RH  031%=      5-min Rain = 0
KCES 032140Z 10008KT 35/15 A3003 RMK A01 T03480146  RH  031%=      5-min Rain = 0
KCES 032145Z 11007KT 35/14 A3002 RMK A01 T03470143  RH  031%=      5-min Rain = 0
KCES 032150Z 10009KT 35/14 A3002 RMK A01 T03480142  RH  030%=      5-min Rain = 0
KCES 032155Z 10007G13KT 35/14 A3002 RMK A01 T03450143  RH  031%=      5-min Rain = 0
KCES 032200Z 15011KT 34/15 A3002 RMK A01 T03430145  RH  032%=      5-min Rain = 0
KCES 032205Z 13010G15KT 35/15 A3002 RMK A01 T03500145  RH  031%=      5-min Rain = 0
KCES 032210Z 14010KT 35/14 A3002 RMK A01 T03500144  RH  030%=      5-min Rain = 0
KCES 032215Z 15006G11KT 35/14 A3002 RMK A01 T03510142  RH  030%=      5-min Rain = 0
KCES 032220Z 10007KT 35/14 A3002 RMK A01 T03490142  RH  030%=      5-min Rain = 0
KCES 032225Z 11005KT 34/14 A3002 RMK A01 T03420138  RH  031%=      5-min Rain = 0
KCES 032230Z 10006KT 35/14 A3002 RMK A01 T03460141  RH  030%=      5-min Rain = 0
KCES 032235Z 12009G14KT 35/14 A3002 RMK A01 T03500143  RH  030%=      5-min Rain = 0
KCES 032240Z 14011KT 35/14 A3001 RMK A01 T03460139  RH  030%=      5-min Rain = 0
KCES 032245Z 15009KT 35/14 A3001 RMK A01 T03460138  RH  030%=      5-min Rain = 0
KCES 032250Z 13007KT 35/14 A3001 RMK A01 T03480136  RH  029%=      5-min Rain = 0
KCES 032255Z 15009KT 35/14 A3001 RMK A01 T03480137  RH  029%=      5-min Rain = 0
KCES 032300Z 15011G16KT 35/14 A3001 RMK A01 T03460140  RH  030%=      5-min Rain = 0
KCES 032305Z 13008KT 35/14 A3001 RMK A01 T03470139  RH  030%=      5-min Rain = 0
KCES 032310Z 11008KT 35/14 A30 RMK A01 T03450136  RH  030%=      5-min Rain = 0
KCES 032315Z 12008G15KT 35/14 A30 RMK A01 T03470137  RH  030%=      5-min Rain = 0
KCES 032320Z 12008KT 35/14 A30 RMK A01 T03480137  RH  029%=      5-min Rain = 0
KCES 032325Z 15008KT 35/13 A30 RMK A01 T03490133  RH  028%=      5-min Rain = 0
KCES 032330Z 15007KT 35/13 A30 RMK A01 T03460134  RH  029%=      5-min Rain = 0
KCES 032335Z 14010KT 35/14 A2999 RMK A01 T03460135  RH  029%=      5-min Rain = 0
KCES 032340Z 14011KT 35/14 A2999 RMK A01 T03480137  RH  029%=      5-min Rain = 0
KCES 032345Z 13011KT 35/14 A2999 RMK A01 T03480137  RH  029%=      5-min Rain = 0
KCES 032350Z 12013G18KT 35/14 A2999 RMK A01 T03470137  RH  029%=      5-min Rain = 0
KCES 032355Z 13013KT 34/14 A2999 RMK A01 T03440138  RH  030%=      5-min Rain = 0
KCES 040000Z 14013KT 34/14 A2999 RMK A01 T03440139  RH  030%=      5-min Rain = 0
KCES 040005Z 14011KT 35/14 A2999 RMK A01 T03450140  RH  030%=      5-min Rain = 0
KCES 040010Z 15012KT 34/14 A2999 RMK A01 T03430135  RH  030%=      5-min Rain = 0
KCES 040015Z 15012KT 34/14 A2999 RMK A01 T03430136  RH  030%=      5-min Rain = 0
KCES 040020Z 16010KT 34/14 A30 RMK A01 T03430138  RH  030%=      5-min Rain = 0
KCES 040025Z 15010KT 34/14 A30 RMK A01 T03420138  RH  031%=      5-min Rain = 0
KCES 040030Z 15010KT 34/14 A30 RMK A01 T03400136  RH  030%=      5-min Rain = 0
KCES 040035Z 14010KT 34/14 A30 RMK A01 T03390135  RH  030%=      5-min Rain = 0
KCES 040040Z 14009KT 34/13 A30 RMK A01 T03360134  RH  031%=      5-min Rain = 0
KCES 040045Z 15008KT 33/14 A30 RMK A01 T03320136  RH  032%=      5-min Rain = 0
KCES 040050Z 15007KT 33/14 A3001 RMK A01 T03310137  RH  032%=      5-min Rain = 0
KCES 040055Z 14008KT 33/14 A3001 RMK A01 T03280138  RH  033%=      5-min Rain = 0
KCES 040100Z 14008KT 33/14 A3001 RMK A01 T03260137  RH  033%=      5-min Rain = 0
KCES 040105Z 15008KT 32/14 A3001 RMK A01 T03230141  RH  035%=      5-min Rain = 0
KCES 040110Z 15010KT 32/14 A3001 RMK A01 T03210140  RH  035%=      5-min Rain = 0
KCES 040115Z 16009KT 32/14 A3001 RMK A01 T03200142  RH  036%=      5-min Rain = 0
KCES 040120Z 16009KT 32/14 A3001 RMK A01 T03180143  RH  036%=      5-min Rain = 0
KCES 040125Z 15009KT 32/14 A3001 RMK A01 T03160143  RH  037%=      5-min Rain = 0
KCES 040130Z 15008KT 31/14 A3001 RMK A01 T03140143  RH  037%=      5-min Rain = 0
KCES 040135Z 15008KT 31/14 A3001 RMK A01 T03130141  RH  037%=      5-min Rain = 0
KCES 040140Z 15008KT 31/15 A3001 RMK A01 T03100145  RH  038%=      5-min Rain = 0
KCES 040145Z 14007KT 30/15 A3001 RMK A01 T03040147  RH  040%=      5-min Rain = 0
KCES 040150Z 14007KT 30/15 A3001 RMK A01 T03000149  RH  042%=      5-min Rain = 0
KCES 040155Z 14008KT 30/15 A3001 RMK A01 T02950150  RH  043%=      5-min Rain = 0
KCES 040200Z 14007KT 29/15 A3002 RMK A01 T02930151  RH  044%=      5-min Rain = 0
KCES 040205Z 14007KT 29/15 A3002 RMK A01 T02900153  RH  045%=      5-min Rain = 0
KCES 040210Z 15007KT 29/15 A3002 RMK A01 T02870154  RH  046%=      5-min Rain = 0
KCES 040215Z 15007KT 29/15 A3002 RMK A01 T02850154  RH  047%=      5-min Rain = 0
KCES 040220Z 14008KT 28/15 A3002 RMK A01 T02830154  RH  048%=      5-min Rain = 0
KCES 040225Z 14008KT 28/15 A3002 RMK A01 T02810154  RH  048%=      5-min Rain = 0
KCES 040230Z 14008KT 28/16 A3003 RMK A01 T02790156  RH  049%=      5-min Rain = 0
KCES 040235Z 14008KT 28/16 A3003 RMK A01 T02770156  RH  050%=      5-min Rain = 0
KCES 040240Z 15008KT 28/15 A3003 RMK A01 T02770154  RH  049%=      5-min Rain = 0
KCES 040245Z 15008KT 28/16 A3003 RMK A01 T02770155  RH  050%=      5-min Rain = 0
KCES 040250Z 15008KT 28/16 A3004 RMK A01 T02760156  RH  050%=      5-min Rain = 0
KCES 040255Z 14008KT 28/15 A3004 RMK A01 T02760154  RH  050%=      5-min Rain = 0
KCES 040300Z 14008KT 28/15 A3004 RMK A01 T02770154  RH  049%=      5-min Rain = 0
KCES 040305Z 14008KT 28/16 A3004 RMK A01 T02760156  RH  050%=      5-min Rain = 0
KCES 040310Z 15008KT 28/16 A3005 RMK A01 T02750156  RH  051%=      5-min Rain = 0
KCES 040315Z 15008KT 27/16 A3005 RMK A01 T02740157  RH  051%=      5-min Rain = 0
KCES 040320Z 15008KT 27/16 A3005 RMK A01 T02740155  RH  050%=      5-min Rain = 0
KCES 040325Z 15008KT 28/15 A3006 RMK A01 T02760153  RH  049%=      5-min Rain = 0
KCES 040330Z 15008KT 28/15 A3006 RMK A01 T02790153  RH  049%=      5-min Rain = 0
KCES 040335Z 15008KT 28/15 A3006 RMK A01 T02790154  RH  049%=      5-min Rain = 0
KCES 040340Z 15008KT 28/16 A3006 RMK A01 T02780155  RH  049%=      5-min Rain = 0
KCES 040345Z 15008KT 28/15 A3006 RMK A01 T02780154  RH  049%=      5-min Rain = 0
KCES 040350Z 15008KT 28/15 A3006 RMK A01 T02780154  RH  049%=      5-min Rain = 0
KCES 040355Z 15008KT 28/15 A3007 RMK A01 T02780153  RH  049%=      5-min Rain = 0
KCES 040400Z 15009KT 28/15 A3007 RMK A01 T02780154  RH  049%=      5-min Rain = 0
KCES 040405Z 15009KT 28/15 A3007 RMK A01 T02780154  RH  049%=      5-min Rain = 0
KCES 040410Z 15009KT 28/15 A3007 RMK A01 T02780154  RH  049%=      5-min Rain = 0
KCES 040415Z 15009KT 28/15 A3006 RMK A01 T02790154  RH  049%=      5-min Rain = 0
KCES 040420Z 15009KT 28/15 A3007 RMK A01 T02800153  RH  048%=      5-min Rain = 0
KCES 040425Z 15009KT 28/15 A3007 RMK A01 T02810152  RH  048%=      5-min Rain = 0
KCES 040430Z 15009KT 28/15 A3007 RMK A01 T02810153  RH  048%=      5-min Rain = 0
KCES 040435Z 15009KT 28/15 A3007 RMK A01 T02820152  RH  047%=      5-min Rain = 0
KCES 040440Z 15009KT 28/15 A3007 RMK A01 T02820152  RH  047%=      5-min Rain = 0
KCES 040445Z 15009KT 28/15 A3007 RMK A01 T02830152  RH  047%=      5-min Rain = 0
KCES 040450Z 16009KT 28/15 A3007 RMK A01 T02830152  RH  047%=      5-min Rain = 0
KCES 040455Z 15009KT 28/15 A3007 RMK A01 T02830151  RH  047%=      5-min Rain = 0

Page generated in 0.0095 seconds.